Krymsk — A8CE4 — position and weather

sailwx.info

Track history (hours):
 
Tides and Currents Weather Stations Pressure Air Temp Water Temp Dewpoint Dewpoint Depression Visibility Wind Speed Wind Dir Waves Ship Positions

Krymsk

Last reported at 2016-Sep-15 01:33 UTC. Time now 2016-Sep-25 00:24 UTC.
Position N 38°22' W 074°38'.
Warning: this ship's position is 9 days out of date.

Length 250 m; draft 8.5 m.

Type: Ship. MMSI: 636011914.

Date/timePositionNaut miles runAvg speedWind from/ knotsBaromVisibWave heightAir tempDewpointWater temp
2016-Sep-15 01:33N 38°22' W 074°38'0 0.0
2016-Sep-14 16:30N 38°22' W 074°38'0 0.0
2016-Sep-14 09:29N 38°22' W 074°38'0 0.0
2016-Sep-14 08:29N 38°22' W 074°38'0 0.0
2016-Sep-14 07:32N 38°22' W 074°38'0 0.0
2016-Sep-14 06:32N 38°22' W 074°38'0 0.0
2016-Sep-14 03:32N 38°22' W 074°38'31 2.0
2016-Sep-13 11:33N 38°47' W 075°02'2512.4
2016-Sep-13 09:34N 39°09' W 075°15'2613.0
2016-Sep-13 07:34N 39°31' W 075°33'1313.3
2016-Sep-13 06:34N 39°44' W 075°30'6 3.2
2016-Sep-13 04:32N 39°49' W 075°24'0 0.1
2016-Sep-13 02:32N 39°49' W 075°23'0 0.0
2016-Sep-12 23:32N 39°49' W 075°23'0 0.1
2016-Sep-12 21:32N 39°49' W 075°24'0 0.1
2016-Sep-12 19:32N 39°49' W 075°24'0 0.0
2016-Sep-12 17:29N 39°49' W 075°24'16 5.6
2016-Sep-12 14:33N 39°35' W 075°34'1 0.7
2016-Sep-12 13:31N 39°35' W 075°35'0 0.0
2016-Sep-12 12:28N 39°35' W 075°35'0 0.0
2016-Sep-12 11:31N 39°35' W 075°35'0 0.0
2016-Sep-12 10:31N 39°35' W 075°35'0 0.0
2016-Sep-12 07:31N 39°35' W 075°35'0 0.0
2016-Sep-12 06:31N 39°35' W 075°35'0 0.0
2016-Sep-12 03:31N 39°35' W 075°35'0 0.0
2016-Sep-12 01:31N 39°35' W 075°35'0 0.0
2016-Sep-11 23:31N 39°35' W 075°35'0 0.0
2016-Sep-11 22:31N 39°35' W 075°35'0 0.0
2016-Sep-11 21:31N 39°35' W 075°35'0 0.0
2016-Sep-11 20:31N 39°35' W 075°35'0 0.0
2016-Sep-11 19:31N 39°35' W 075°35'0 0.0
2016-Sep-11 18:31N 39°35' W 075°35'0 0.0
2016-Sep-11 17:31N 39°35' W 075°35'0 0.0
2016-Sep-11 16:31N 39°35' W 075°35'0 0.0
2016-Sep-11 15:34N 39°35' W 075°35'0 0.0
2016-Sep-11 14:33N 39°35' W 075°35'0 0.0
2016-Sep-11 13:33N 39°35' W 075°35'0 0.0
2016-Sep-11 12:33N 39°35' W 075°35'0 0.0
2016-Sep-11 11:33N 39°35' W 075°35'0 0.0
2016-Sep-11 10:33N 39°35' W 075°35'0 0.0
2016-Sep-11 08:33N 39°35' W 075°35'0 0.0
2016-Sep-11 07:33N 39°35' W 075°35'0 0.0
2016-Sep-11 03:33N 39°35' W 075°35'0 0.0
2016-Sep-11 02:33N 39°35' W 075°35'0 0.0
2016-Sep-11 01:33N 39°35' W 075°35'0 0.1
2016-Sep-11 00:34N 39°35' W 075°35'5 4.5
2016-Sep-10 23:33N 39°31' W 075°33'5 5.2
2016-Sep-10 22:33N 39°26' W 075°32'9 9.2
2016-Sep-10 21:33N 39°19' W 075°24'1211.9
2016-Sep-10 20:33N 39°09' W 075°15'1211.9
2016-Sep-10 19:33N 38°59' W 075°08'3 3.1
2016-Sep-10 18:33N 38°57' W 075°11'1 1.4
2016-Sep-10 17:33N 38°58' W 075°12'0 0.0
2016-Sep-10 16:30N 38°58' W 075°12'0 0.2
2016-Sep-10 15:21N 38°58' W 075°12'0 0.1
2016-Sep-10 14:30N 38°58' W 075°12'0 0.0
2016-Sep-10 13:33N 38°58' W 075°12'0 0.0
2016-Sep-10 12:33N 38°58' W 075°12'0 0.1
2016-Sep-10 11:33N 38°58' W 075°12'0 0.0
2016-Sep-10 10:30N 38°58' W 075°12'0 0.1
2016-Sep-10 09:33N 38°58' W 075°12'0 0.1
2016-Sep-10 08:30N 38°58' W 075°12'0 0.0
2016-Sep-10 07:33N 38°58' W 075°12'0 0.0
2016-Sep-10 06:33N 38°58' W 075°12'0 0.0
2016-Sep-10 05:33N 38°58' W 075°12'0 0.0
2016-Sep-10 04:33N 38°58' W 075°12'0 0.2
2016-Sep-10 03:30N 38°58' W 075°12'0 0.2
2016-Sep-10 02:33N 38°58' W 075°12'0 0.0
2016-Sep-10 01:33N 38°58' W 075°12'0 0.0
2016-Sep-10 00:30N 38°58' W 075°12'0 0.0
2016-Sep-09 23:30N 38°58' W 075°12'0 0.0
2016-Sep-09 22:30N 38°58' W 075°12'0 0.2
2016-Sep-09 21:33N 38°58' W 075°12'0 0.1
2016-Sep-09 20:30N 38°58' W 075°12'0 0.0
2016-Sep-09 19:33N 38°58' W 075°12'0 0.0
2016-Sep-09 18:32N 38°58' W 075°12'0 0.0
2016-Sep-09 17:17N 38°58' W 075°12'0 0.0
2016-Sep-09 16:29N 38°58' W 075°12'0 0.1
2016-Sep-09 14:32N 38°58' W 075°12'0 0.0
2016-Sep-09 13:32N 38°58' W 075°12'0 0.0
2016-Sep-09 12:32N 38°58' W 075°12'0 0.0
2016-Sep-09 11:32N 38°58' W 075°12'0 0.0
2016-Sep-09 10:32N 38°58' W 075°12'0 0.0
2016-Sep-09 09:32N 38°58' W 075°12'0 0.2
2016-Sep-09 08:32N 38°58' W 075°12'0 0.1
2016-Sep-09 07:26N 38°58' W 075°12'0 0.1
2016-Sep-09 06:26N 38°58' W 075°12'0 0.0
2016-Sep-09 05:32N 38°58' W 075°12'0 0.0
2016-Sep-09 04:29N 38°58' W 075°12'0 0.0
2016-Sep-09 03:29N 38°58' W 075°12'0 0.3
2016-Sep-09 02:32N 38°58' W 075°12'0 0.1
2016-Sep-09 01:29N 38°58' W 075°12'0 0.0
2016-Sep-09 00:32N 38°58' W 075°12'0 0.0
2016-Sep-08 23:29N 38°58' W 075°12'0 0.0
2016-Sep-08 22:29N 38°58' W 075°12'0 0.1
2016-Sep-08 21:29N 38°58' W 075°12'0 0.2
2016-Sep-08 20:32N 38°58' W 075°12'0 0.2
2016-Sep-08 19:17N 38°58' W 075°12'1 1.2
2016-Sep-08 18:33N 38°57' W 075°11'8 7.7
2016-Sep-08 17:30N 38°51' W 075°05'  
Track history (hours):
 
Tides and Currents Weather Stations Pressure Air Temp Water Temp Dewpoint Dewpoint Depression Visibility Wind Speed Wind Dir Waves Ship Positions

Krymsk

Last reported at 2016-Sep-15 01:33 UTC. Time now 2016-Sep-25 00:24 UTC.
Position N 38°22' W 074°38'.
Warning: this ship's position is 9 days out of date.

Length 250 m; draft 8.5 m.

Type: Ship. MMSI: 636011914.

Date/timePositionNaut miles runAvg speedWind from/ knotsBaromVisibWave heightAir tempDewpointWater temp
2016-Sep-15 01:33N 38°22' W 074°38'0 0.0
2016-Sep-14 16:30N 38°22' W 074°38'0 0.0
2016-Sep-14 09:29N 38°22' W 074°38'0 0.0
2016-Sep-14 08:29N 38°22' W 074°38'0 0.0
2016-Sep-14 07:32N 38°22' W 074°38'0 0.0
2016-Sep-14 06:32N 38°22' W 074°38'0 0.0
2016-Sep-14 03:32N 38°22' W 074°38'31 2.0
2016-Sep-13 11:33N 38°47' W 075°02'2512.4
2016-Sep-13 09:34N 39°09' W 075°15'2613.0
2016-Sep-13 07:34N 39°31' W 075°33'1313.3
2016-Sep-13 06:34N 39°44' W 075°30'6 3.2
2016-Sep-13 04:32N 39°49' W 075°24'0 0.1
2016-Sep-13 02:32N 39°49' W 075°23'0 0.0
2016-Sep-12 23:32N 39°49' W 075°23'0 0.1
2016-Sep-12 21:32N 39°49' W 075°24'0 0.1
2016-Sep-12 19:32N 39°49' W 075°24'0 0.0
2016-Sep-12 17:29N 39°49' W 075°24'16 5.6
2016-Sep-12 14:33N 39°35' W 075°34'1 0.7
2016-Sep-12 13:31N 39°35' W 075°35'0 0.0
2016-Sep-12 12:28N 39°35' W 075°35'0 0.0
2016-Sep-12 11:31N 39°35' W 075°35'0 0.0
2016-Sep-12 10:31N 39°35' W 075°35'0 0.0
2016-Sep-12 07:31N 39°35' W 075°35'0 0.0
2016-Sep-12 06:31N 39°35' W 075°35'0 0.0
2016-Sep-12 03:31N 39°35' W 075°35'0 0.0
2016-Sep-12 01:31N 39°35' W 075°35'0 0.0
2016-Sep-11 23:31N 39°35' W 075°35'0 0.0
2016-Sep-11 22:31N 39°35' W 075°35'0 0.0
2016-Sep-11 21:31N 39°35' W 075°35'0 0.0
2016-Sep-11 20:31N 39°35' W 075°35'0 0.0
2016-Sep-11 19:31N 39°35' W 075°35'0 0.0
2016-Sep-11 18:31N 39°35' W 075°35'0 0.0
2016-Sep-11 17:31N 39°35' W 075°35'0 0.0
2016-Sep-11 16:31N 39°35' W 075°35'0 0.0
2016-Sep-11 15:34N 39°35' W 075°35'0 0.0
2016-Sep-11 14:33N 39°35' W 075°35'0 0.0
2016-Sep-11 13:33N 39°35' W 075°35'0 0.0
2016-Sep-11 12:33N 39°35' W 075°35'0 0.0
2016-Sep-11 11:33N 39°35' W 075°35'0 0.0
2016-Sep-11 10:33N 39°35' W 075°35'0 0.0
2016-Sep-11 08:33N 39°35' W 075°35'0 0.0
2016-Sep-11 07:33N 39°35' W 075°35'0 0.0
2016-Sep-11 03:33N 39°35' W 075°35'0 0.0
2016-Sep-11 02:33N 39°35' W 075°35'0 0.0
2016-Sep-11 01:33N 39°35' W 075°35'0 0.1
2016-Sep-11 00:34N 39°35' W 075°35'5 4.5
2016-Sep-10 23:33N 39°31' W 075°33'5 5.2
2016-Sep-10 22:33N 39°26' W 075°32'9 9.2
2016-Sep-10 21:33N 39°19' W 075°24'1211.9
2016-Sep-10 20:33N 39°09' W 075°15'1211.9
2016-Sep-10 19:33N 38°59' W 075°08'3 3.1
2016-Sep-10 18:33N 38°57' W 075°11'1 1.4
2016-Sep-10 17:33N 38°58' W 075°12'0 0.0
2016-Sep-10 16:30N 38°58' W 075°12'0 0.2
2016-Sep-10 15:21N 38°58' W 075°12'0 0.1
2016-Sep-10 14:30N 38°58' W 075°12'0 0.0
2016-Sep-10 13:33N 38°58' W 075°12'0 0.0
2016-Sep-10 12:33N 38°58' W 075°12'0 0.1
2016-Sep-10 11:33N 38°58' W 075°12'0 0.0
2016-Sep-10 10:30N 38°58' W 075°12'0 0.1
2016-Sep-10 09:33N 38°58' W 075°12'0 0.1
2016-Sep-10 08:30N 38°58' W 075°12'0 0.0
2016-Sep-10 07:33N 38°58' W 075°12'0 0.0
2016-Sep-10 06:33N 38°58' W 075°12'0 0.0
2016-Sep-10 05:33N 38°58' W 075°12'0 0.0
2016-Sep-10 04:33N 38°58' W 075°12'0 0.2
2016-Sep-10 03:30N 38°58' W 075°12'0 0.2
2016-Sep-10 02:33N 38°58' W 075°12'0 0.0
2016-Sep-10 01:33N 38°58' W 075°12'0 0.0
2016-Sep-10 00:30N 38°58' W 075°12'0 0.0
2016-Sep-09 23:30N 38°58' W 075°12'0 0.0
2016-Sep-09 22:30N 38°58' W 075°12'0 0.2
2016-Sep-09 21:33N 38°58' W 075°12'0 0.1
2016-Sep-09 20:30N 38°58' W 075°12'0 0.0
2016-Sep-09 19:33N 38°58' W 075°12'0 0.0
2016-Sep-09 18:32N 38°58' W 075°12'0 0.0
2016-Sep-09 17:17N 38°58' W 075°12'0 0.0
2016-Sep-09 16:29N 38°58' W 075°12'0 0.1
2016-Sep-09 14:32N 38°58' W 075°12'0 0.0
2016-Sep-09 13:32N 38°58' W 075°12'0 0.0
2016-Sep-09 12:32N 38°58' W 075°12'0 0.0
2016-Sep-09 11:32N 38°58' W 075°12'0 0.0
2016-Sep-09 10:32N 38°58' W 075°12'0 0.0
2016-Sep-09 09:32N 38°58' W 075°12'0 0.2
2016-Sep-09 08:32N 38°58' W 075°12'0 0.1
2016-Sep-09 07:26N 38°58' W 075°12'0 0.1
2016-Sep-09 06:26N 38°58' W 075°12'0 0.0
2016-Sep-09 05:32N 38°58' W 075°12'0 0.0
2016-Sep-09 04:29N 38°58' W 075°12'0 0.0
2016-Sep-09 03:29N 38°58' W 075°12'0 0.3
2016-Sep-09 02:32N 38°58' W 075°12'0 0.1
2016-Sep-09 01:29N 38°58' W 075°12'0 0.0
2016-Sep-09 00:32N 38°58' W 075°12'0 0.0
2016-Sep-08 23:29N 38°58' W 075°12'0 0.0
2016-Sep-08 22:29N 38°58' W 075°12'0 0.1
2016-Sep-08 21:29N 38°58' W 075°12'0 0.2
2016-Sep-08 20:32N 38°58' W 075°12'0 0.2
2016-Sep-08 19:17N 38°58' W 075°12'1 1.2
2016-Sep-08 18:33N 38°57' W 075°11'8 7.7
2016-Sep-08 17:30N 38°51' W 075°05'  

Dump ship's entire track history